sensor_id;sensor_type;location;lat;lon;timestamp;P1;durP1;ratioP1;P2;durP2;ratioP2
41201;SDS011;26936;50.524;8.684;2023-05-10T00:00:22;1.33;;;0.60;;
41201;SDS011;26936;50.524;8.684;2023-05-10T00:02:48;1.48;;;0.63;;
41201;SDS011;26936;50.524;8.684;2023-05-10T00:05:14;1.73;;;0.57;;
41201;SDS011;26936;50.524;8.684;2023-05-10T00:07:39;2.70;;;0.40;;
41201;SDS011;26936;50.524;8.684;2023-05-10T00:10:05;1.83;;;0.40;;
41201;SDS011;26936;50.524;8.684;2023-05-10T00:12:31;1.63;;;0.40;;
41201;SDS011;26936;50.524;8.684;2023-05-10T00:14:57;0.82;;;0.60;;
41201;SDS011;26936;50.524;8.684;2023-05-10T00:17:22;3.95;;;0.60;;
41201;SDS011;26936;50.524;8.684;2023-05-10T00:19:47;0.87;;;0.40;;
41201;SDS011;26936;50.524;8.684;2023-05-10T00:22:13;1.38;;;0.45;;
41201;SDS011;26936;50.524;8.684;2023-05-10T00:24:38;1.08;;;0.60;;
41201;SDS011;26936;50.524;8.684;2023-05-10T00:27:03;1.67;;;0.40;;
41201;SDS011;26936;50.524;8.684;2023-05-10T00:29:29;0.60;;;0.40;;
41201;SDS011;26936;50.524;8.684;2023-05-10T00:31:54;0.40;;;0.30;;
41201;SDS011;26936;50.524;8.684;2023-05-10T00:34:19;2.10;;;0.20;;
41201;SDS011;26936;50.524;8.684;2023-05-10T00:36:45;1.85;;;0.20;;
41201;SDS011;26936;50.524;8.684;2023-05-10T00:39:10;0.77;;;0.25;;
41201;SDS011;26936;50.524;8.684;2023-05-10T00:41:35;0.10;;;0.10;;
41201;SDS011;26936;50.524;8.684;2023-05-10T00:44:01;0.32;;;0.28;;
41201;SDS011;26936;50.524;8.684;2023-05-10T00:46:27;0.90;;;0.20;;
41201;SDS011;26936;50.524;8.684;2023-05-10T00:48:53;1.05;;;0.20;;
41201;SDS011;26936;50.524;8.684;2023-05-10T00:51:18;0.30;;;0.25;;
41201;SDS011;26936;50.524;8.684;2023-05-10T00:53:47;1.33;;;0.40;;
41201;SDS011;26936;50.524;8.684;2023-05-10T00:56:13;0.30;;;0.30;;
41201;SDS011;26936;50.524;8.684;2023-05-10T00:58:39;1.77;;;0.22;;
41201;SDS011;26936;50.524;8.684;2023-05-10T01:01:05;1.05;;;0.40;;
41201;SDS011;26936;50.524;8.684;2023-05-10T01:03:31;0.63;;;0.28;;
41201;SDS011;26936;50.524;8.684;2023-05-10T01:05:57;0.32;;;0.20;;
41201;SDS011;26936;50.524;8.684;2023-05-10T01:08:22;1.00;;;0.20;;
41201;SDS011;26936;50.524;8.684;2023-05-10T01:10:48;3.13;;;0.38;;
41201;SDS011;26936;50.524;8.684;2023-05-10T01:13:16;1.08;;;0.17;;
41201;SDS011;26936;50.524;8.684;2023-05-10T01:15:48;0.10;;;0.10;;
41201;SDS011;26936;50.524;8.684;2023-05-10T01:18:13;0.88;;;0.20;;
41201;SDS011;26936;50.524;8.684;2023-05-10T01:20:40;2.60;;;0.20;;
41201;SDS011;26936;50.524;8.684;2023-05-10T01:23:22;0.43;;;0.10;;
41201;SDS011;26936;50.524;8.684;2023-05-10T01:28:56;0.20;;;0.13;;
41201;SDS011;26936;50.524;8.684;2023-05-10T01:31:35;0.50;;;0.22;;
41201;SDS011;26936;50.524;8.684;2023-05-10T01:34:35;1.80;;;0.30;;
41201;SDS011;26936;50.524;8.684;2023-05-10T01:37:11;1.95;;;0.10;;
41201;SDS011;26936;50.524;8.684;2023-05-10T01:39:50;0.38;;;0.28;;
41201;SDS011;26936;50.524;8.684;2023-05-10T01:42:23;0.20;;;0.20;;
41201;SDS011;26936;50.524;8.684;2023-05-10T01:45:05;1.35;;;0.30;;
41201;SDS011;26936;50.524;8.684;2023-05-10T01:47:43;1.95;;;0.30;;
41201;SDS011;26936;50.524;8.684;2023-05-10T01:50:16;3.20;;;0.38;;
41201;SDS011;26936;50.524;8.684;2023-05-10T01:52:53;0.20;;;0.20;;
41201;SDS011;26936;50.524;8.684;2023-05-10T01:55:21;3.35;;;0.30;;
41201;SDS011;26936;50.524;8.684;2023-05-10T01:57:52;1.20;;;0.20;;
41201;SDS011;26936;50.524;8.684;2023-05-10T02:00:30;3.63;;;0.38;;
41201;SDS011;26936;50.524;8.684;2023-05-10T02:02:57;1.30;;;0.20;;
41201;SDS011;26936;50.524;8.684;2023-05-10T02:05:24;0.45;;;0.20;;
41201;SDS011;26936;50.524;8.684;2023-05-10T02:07:52;1.77;;;0.25;;
41201;SDS011;26936;50.524;8.684;2023-05-10T02:10:17;2.95;;;0.30;;
41201;SDS011;26936;50.524;8.684;2023-05-10T02:12:45;0.20;;;0.20;;
41201;SDS011;26936;50.524;8.684;2023-05-10T02:15:12;0.50;;;0.20;;
41201;SDS011;26936;50.524;8.684;2023-05-10T02:17:42;0.98;;;0.38;;
41201;SDS011;26936;50.524;8.684;2023-05-10T02:20:08;0.57;;;0.20;;
41201;SDS011;26936;50.524;8.684;2023-05-10T02:22:35;0.50;;;0.40;;
41201;SDS011;26936;50.524;8.684;2023-05-10T02:25:02;0.35;;;0.13;;
41201;SDS011;26936;50.524;8.684;2023-05-10T02:27:28;1.17;;;0.20;;
41201;SDS011;26936;50.524;8.684;2023-05-10T02:29:54;2.47;;;0.28;;
41201;SDS011;26936;50.524;8.684;2023-05-10T02:32:22;3.22;;;0.35;;
41201;SDS011;26936;50.524;8.684;2023-05-10T02:34:51;0.50;;;0.20;;
41201;SDS011;26936;50.524;8.684;2023-05-10T02:37:19;0.30;;;0.30;;
41201;SDS011;26936;50.524;8.684;2023-05-10T02:39:49;0.32;;;0.20;;
41201;SDS011;26936;50.524;8.684;2023-05-10T02:42:16;1.83;;;0.50;;
41201;SDS011;26936;50.524;8.684;2023-05-10T02:44:47;1.40;;;0.45;;
41201;SDS011;26936;50.524;8.684;2023-05-10T02:47:15;1.75;;;0.55;;
41201;SDS011;26936;50.524;8.684;2023-05-10T02:49:41;0.63;;;0.63;;
41201;SDS011;26936;50.524;8.684;2023-05-10T02:52:06;1.23;;;0.73;;
41201;SDS011;26936;50.524;8.684;2023-05-10T02:54:35;1.17;;;0.88;;
41201;SDS011;26936;50.524;8.684;2023-05-10T02:57:06;0.70;;;0.68;;
41201;SDS011;26936;50.524;8.684;2023-05-10T02:59:35;2.05;;;0.80;;
41201;SDS011;26936;50.524;8.684;2023-05-10T03:02:00;2.08;;;0.90;;
41201;SDS011;26936;50.524;8.684;2023-05-10T03:04:26;1.30;;;0.88;;
41201;SDS011;26936;50.524;8.684;2023-05-10T03:06:52;1.23;;;0.80;;
41201;SDS011;26936;50.524;8.684;2023-05-10T03:09:17;1.10;;;0.80;;
41201;SDS011;26936;50.524;8.684;2023-05-10T03:11:50;2.58;;;0.80;;
41201;SDS011;26936;50.524;8.684;2023-05-10T03:14:53;2.50;;;0.88;;
41201;SDS011;26936;50.524;8.684;2023-05-10T03:20:29;2.15;;;1.00;;
41201;SDS011;26936;50.524;8.684;2023-05-10T03:23:07;1.83;;;0.98;;
41201;SDS011;26936;50.524;8.684;2023-05-10T03:25:46;1.65;;;0.88;;
41201;SDS011;26936;50.524;8.684;2023-05-10T03:28:14;2.08;;;0.88;;
41201;SDS011;26936;50.524;8.684;2023-05-10T03:30:41;1.90;;;0.70;;
41201;SDS011;26936;50.524;8.684;2023-05-10T03:33:07;2.28;;;0.88;;
41201;SDS011;26936;50.524;8.684;2023-05-10T03:35:33;0.55;;;0.55;;
41201;SDS011;26936;50.524;8.684;2023-05-10T03:37:58;1.83;;;0.80;;
41201;SDS011;26936;50.524;8.684;2023-05-10T03:40:24;1.50;;;0.70;;
41201;SDS011;26936;50.524;8.684;2023-05-10T03:42:50;1.85;;;0.70;;
41201;SDS011;26936;50.524;8.684;2023-05-10T03:45:16;0.93;;;0.77;;
41201;SDS011;26936;50.524;8.684;2023-05-10T03:47:41;1.60;;;1.02;;
41201;SDS011;26936;50.524;8.684;2023-05-10T03:50:06;2.35;;;0.95;;
41201;SDS011;26936;50.524;8.684;2023-05-10T03:52:32;1.52;;;0.77;;
41201;SDS011;26936;50.524;8.684;2023-05-10T03:54:57;1.02;;;0.90;;
41201;SDS011;26936;50.524;8.684;2023-05-10T03:57:23;1.65;;;0.98;;
41201;SDS011;26936;50.524;8.684;2023-05-10T03:59:48;1.13;;;1.00;;
41201;SDS011;26936;50.524;8.684;2023-05-10T04:02:13;2.58;;;1.05;;
41201;SDS011;26936;50.524;8.684;2023-05-10T04:04:39;1.20;;;1.00;;
41201;SDS011;26936;50.524;8.684;2023-05-10T04:07:04;1.42;;;1.00;;
41201;SDS011;26936;50.524;8.684;2023-05-10T04:09:29;1.75;;;1.00;;
41201;SDS011;26936;50.524;8.684;2023-05-10T04:11:54;1.47;;;1.00;;
41201;SDS011;26936;50.524;8.684;2023-05-10T04:14:20;1.67;;;1.33;;
41201;SDS011;26936;50.524;8.684;2023-05-10T04:16:45;2.60;;;1.45;;
41201;SDS011;26936;50.524;8.684;2023-05-10T04:19:10;7.30;;;1.92;;
41201;SDS011;26936;50.524;8.684;2023-05-10T04:21:36;3.93;;;1.70;;
41201;SDS011;26936;50.524;8.684;2023-05-10T04:24:01;2.43;;;1.50;;
41201;SDS011;26936;50.524;8.684;2023-05-10T04:26:26;3.65;;;2.10;;
41201;SDS011;26936;50.524;8.684;2023-05-10T04:28:52;3.47;;;2.40;;
41201;SDS011;26936;50.524;8.684;2023-05-10T04:31:17;5.10;;;2.90;;
41201;SDS011;26936;50.524;8.684;2023-05-10T04:33:43;5.70;;;2.75;;
41201;SDS011;26936;50.524;8.684;2023-05-10T04:36:08;6.83;;;2.70;;
41201;SDS011;26936;50.524;8.684;2023-05-10T04:38:33;4.75;;;2.55;;
41201;SDS011;26936;50.524;8.684;2023-05-10T04:41:06;4.07;;;2.35;;
41201;SDS011;26936;50.524;8.684;2023-05-10T04:45:57;4.33;;;1.67;;
41201;SDS011;26936;50.524;8.684;2023-05-10T04:48:22;2.30;;;1.37;;
41201;SDS011;26936;50.524;8.684;2023-05-10T04:50:47;4.22;;;2.42;;
41201;SDS011;26936;50.524;8.684;2023-05-10T04:53:13;2.37;;;1.50;;
41201;SDS011;26936;50.524;8.684;2023-05-10T04:55:38;2.63;;;1.60;;
41201;SDS011;26936;50.524;8.684;2023-05-10T04:58:03;3.00;;;1.17;;
41201;SDS011;26936;50.524;8.684;2023-05-10T05:00:29;1.73;;;1.30;;
41201;SDS011;26936;50.524;8.684;2023-05-10T05:02:54;2.97;;;1.40;;
41201;SDS011;26936;50.524;8.684;2023-05-10T05:05:20;2.60;;;1.30;;
41201;SDS011;26936;50.524;8.684;2023-05-10T05:07:45;1.25;;;1.05;;
41201;SDS011;26936;50.524;8.684;2023-05-10T05:10:10;1.13;;;1.00;;
41201;SDS011;26936;50.524;8.684;2023-05-10T05:12:36;1.30;;;0.80;;
41201;SDS011;26936;50.524;8.684;2023-05-10T05:15:01;2.92;;;1.00;;
41201;SDS011;26936;50.524;8.684;2023-05-10T05:17:27;1.30;;;0.90;;
41201;SDS011;26936;50.524;8.684;2023-05-10T05:19:55;0.70;;;0.68;;
41201;SDS011;26936;50.524;8.684;2023-05-10T05:22:20;0.77;;;0.68;;
41201;SDS011;26936;50.524;8.684;2023-05-10T05:24:52;1.90;;;0.60;;
41201;SDS011;26936;50.524;8.684;2023-05-10T05:27:17;2.80;;;0.70;;
41201;SDS011;26936;50.524;8.684;2023-05-10T05:29:43;1.70;;;0.60;;
41201;SDS011;26936;50.524;8.684;2023-05-10T05:32:08;2.25;;;0.70;;
41201;SDS011;26936;50.524;8.684;2023-05-10T05:34:34;0.43;;;0.40;;
41201;SDS011;26936;50.524;8.684;2023-05-10T05:36:59;1.50;;;0.60;;
41201;SDS011;26936;50.524;8.684;2023-05-10T05:39:24;0.90;;;0.60;;
41201;SDS011;26936;50.524;8.684;2023-05-10T05:41:49;1.58;;;0.60;;
41201;SDS011;26936;50.524;8.684;2023-05-10T05:44:15;3.55;;;0.60;;
41201;SDS011;26936;50.524;8.684;2023-05-10T05:46:40;4.93;;;0.80;;
41201;SDS011;26936;50.524;8.684;2023-05-10T05:49:05;0.50;;;0.50;;
41201;SDS011;26936;50.524;8.684;2023-05-10T05:51:30;0.80;;;0.70;;
41201;SDS011;26936;50.524;8.684;2023-05-10T05:53:56;0.93;;;0.67;;
41201;SDS011;26936;50.524;8.684;2023-05-10T05:56:21;0.97;;;0.60;;
41201;SDS011;26936;50.524;8.684;2023-05-10T05:58:52;2.72;;;1.15;;
41201;SDS011;26936;50.524;8.684;2023-05-10T06:01:17;1.40;;;0.55;;
41201;SDS011;26936;50.524;8.684;2023-05-10T06:03:43;2.97;;;0.93;;
41201;SDS011;26936;50.524;8.684;2023-05-10T06:06:08;1.25;;;0.80;;
41201;SDS011;26936;50.524;8.684;2023-05-10T06:08:33;2.17;;;0.60;;
41201;SDS011;26936;50.524;8.684;2023-05-10T06:10:59;0.68;;;0.65;;
41201;SDS011;26936;50.524;8.684;2023-05-10T06:13:25;0.60;;;0.55;;
41201;SDS011;26936;50.524;8.684;2023-05-10T06:15:56;0.60;;;0.60;;
41201;SDS011;26936;50.524;8.684;2023-05-10T06:18:22;0.75;;;0.60;;
41201;SDS011;26936;50.524;8.684;2023-05-10T06:20:49;1.05;;;0.63;;
41201;SDS011;26936;50.524;8.684;2023-05-10T06:23:14;1.40;;;0.55;;
41201;SDS011;26936;50.524;8.684;2023-05-10T06:25:39;0.90;;;0.60;;
41201;SDS011;26936;50.524;8.684;2023-05-10T06:28:05;1.48;;;0.50;;
41201;SDS011;26936;50.524;8.684;2023-05-10T06:30:30;2.45;;;0.77;;
41201;SDS011;26936;50.524;8.684;2023-05-10T06:32:56;2.63;;;0.70;;
41201;SDS011;26936;50.524;8.684;2023-05-10T06:35:21;0.77;;;0.60;;
41201;SDS011;26936;50.524;8.684;2023-05-10T06:37:46;2.10;;;0.60;;
41201;SDS011;26936;50.524;8.684;2023-05-10T06:40:12;1.00;;;0.60;;
41201;SDS011;26936;50.524;8.684;2023-05-10T06:42:37;2.72;;;1.00;;
41201;SDS011;26936;50.524;8.684;2023-05-10T06:45:02;1.77;;;0.70;;
41201;SDS011;26936;50.524;8.684;2023-05-10T06:47:28;2.72;;;0.90;;
41201;SDS011;26936;50.524;8.684;2023-05-10T06:49:53;1.10;;;0.70;;
41201;SDS011;26936;50.524;8.684;2023-05-10T06:52:19;2.10;;;1.00;;
41201;SDS011;26936;50.524;8.684;2023-05-10T06:54:44;1.20;;;0.80;;
41201;SDS011;26936;50.524;8.684;2023-05-10T06:57:10;3.40;;;0.90;;
41201;SDS011;26936;50.524;8.684;2023-05-10T06:59:35;1.50;;;0.80;;
41201;SDS011;26936;50.524;8.684;2023-05-10T07:02:01;1.20;;;0.80;;
41201;SDS011;26936;50.524;8.684;2023-05-10T07:04:27;1.90;;;0.82;;
41201;SDS011;26936;50.524;8.684;2023-05-10T07:06:52;1.27;;;1.02;;
41201;SDS011;26936;50.524;8.684;2023-05-10T07:09:18;1.75;;;1.02;;
41201;SDS011;26936;50.524;8.684;2023-05-10T07:11:43;1.95;;;1.20;;
41201;SDS011;26936;50.524;8.684;2023-05-10T07:14:08;1.77;;;0.90;;
41201;SDS011;26936;50.524;8.684;2023-05-10T07:16:33;3.80;;;0.95;;
41201;SDS011;26936;50.524;8.684;2023-05-10T07:18:59;1.17;;;0.70;;
41201;SDS011;26936;50.524;8.684;2023-05-10T07:21:24;1.13;;;0.70;;
41201;SDS011;26936;50.524;8.684;2023-05-10T07:23:50;1.23;;;1.00;;
41201;SDS011;26936;50.524;8.684;2023-05-10T07:26:15;1.10;;;0.80;;
41201;SDS011;26936;50.524;8.684;2023-05-10T07:28:40;2.78;;;0.80;;
41201;SDS011;26936;50.524;8.684;2023-05-10T07:31:06;1.02;;;0.80;;
41201;SDS011;26936;50.524;8.684;2023-05-10T07:33:31;1.48;;;0.90;;
41201;SDS011;26936;50.524;8.684;2023-05-10T07:35:57;1.88;;;0.85;;
41201;SDS011;26936;50.524;8.684;2023-05-10T07:38:22;1.45;;;0.93;;
41201;SDS011;26936;50.524;8.684;2023-05-10T07:40:48;1.50;;;0.80;;
41201;SDS011;26936;50.524;8.684;2023-05-10T07:43:13;1.48;;;1.00;;
41201;SDS011;26936;50.524;8.684;2023-05-10T07:45:38;1.97;;;1.07;;
41201;SDS011;26936;50.524;8.684;2023-05-10T07:48:04;1.83;;;1.00;;
41201;SDS011;26936;50.524;8.684;2023-05-10T07:50:29;4.13;;;1.20;;
41201;SDS011;26936;50.524;8.684;2023-05-10T07:52:55;1.48;;;1.20;;
41201;SDS011;26936;50.524;8.684;2023-05-10T07:55:20;2.00;;;1.00;;
41201;SDS011;26936;50.524;8.684;2023-05-10T07:57:46;1.20;;;0.85;;
41201;SDS011;26936;50.524;8.684;2023-05-10T08:00:16;1.67;;;1.10;;
41201;SDS011;26936;50.524;8.684;2023-05-10T08:02:43;1.60;;;1.00;;
41201;SDS011;26936;50.524;8.684;2023-05-10T08:05:08;1.23;;;0.90;;
41201;SDS011;26936;50.524;8.684;2023-05-10T08:07:34;2.53;;;0.90;;
41201;SDS011;26936;50.524;8.684;2023-05-10T08:10:00;3.08;;;0.95;;
41201;SDS011;26936;50.524;8.684;2023-05-10T08:12:26;1.73;;;1.13;;
41201;SDS011;26936;50.524;8.684;2023-05-10T08:14:51;8.23;;;1.10;;
41201;SDS011;26936;50.524;8.684;2023-05-10T08:17:16;1.03;;;0.93;;
41201;SDS011;26936;50.524;8.684;2023-05-10T08:19:42;2.73;;;1.07;;
41201;SDS011;26936;50.524;8.684;2023-05-10T08:22:07;1.33;;;0.90;;
41201;SDS011;26936;50.524;8.684;2023-05-10T08:24:32;1.10;;;0.95;;
41201;SDS011;26936;50.524;8.684;2023-05-10T08:26:59;4.03;;;1.25;;
41201;SDS011;26936;50.524;8.684;2023-05-10T08:29:24;1.70;;;1.30;;
41201;SDS011;26936;50.524;8.684;2023-05-10T08:31:50;1.95;;;1.30;;
41201;SDS011;26936;50.524;8.684;2023-05-10T08:34:15;2.40;;;1.20;;
41201;SDS011;26936;50.524;8.684;2023-05-10T08:36:40;3.22;;;1.30;;
41201;SDS011;26936;50.524;8.684;2023-05-10T08:39:06;2.33;;;1.33;;
41201;SDS011;26936;50.524;8.684;2023-05-10T08:41:31;1.67;;;1.33;;
41201;SDS011;26936;50.524;8.684;2023-05-10T08:43:58;4.90;;;1.42;;
41201;SDS011;26936;50.524;8.684;2023-05-10T08:46:28;2.03;;;1.33;;
41201;SDS011;26936;50.524;8.684;2023-05-10T08:48:55;2.80;;;1.70;;
41201;SDS011;26936;50.524;8.684;2023-05-10T08:51:23;5.10;;;2.30;;
41201;SDS011;26936;50.524;8.684;2023-05-10T08:53:51;3.92;;;1.98;;
41201;SDS011;26936;50.524;8.684;2023-05-10T08:56:17;2.83;;;1.95;;
41201;SDS011;26936;50.524;8.684;2023-05-10T08:58:42;4.88;;;2.33;;
41201;SDS011;26936;50.524;8.684;2023-05-10T09:01:08;1.92;;;1.52;;
41201;SDS011;26936;50.524;8.684;2023-05-10T09:03:35;2.38;;;1.65;;
41201;SDS011;26936;50.524;8.684;2023-05-10T09:06:02;3.88;;;2.03;;
41201;SDS011;26936;50.524;8.684;2023-05-10T09:08:28;7.72;;;2.45;;
41201;SDS011;26936;50.524;8.684;2023-05-10T09:10:55;3.42;;;2.10;;
41201;SDS011;26936;50.524;8.684;2023-05-10T09:13:22;3.40;;;1.20;;
41201;SDS011;26936;50.524;8.684;2023-05-10T09:15:48;2.97;;;1.02;;
41201;SDS011;26936;50.524;8.684;2023-05-10T09:18:13;2.60;;;0.90;;
41201;SDS011;26936;50.524;8.684;2023-05-10T09:20:39;1.88;;;0.75;;
41201;SDS011;26936;50.524;8.684;2023-05-10T09:23:05;1.40;;;0.80;;
41201;SDS011;26936;50.524;8.684;2023-05-10T09:25:30;1.17;;;0.90;;
41201;SDS011;26936;50.524;8.684;2023-05-10T09:27:58;2.65;;;1.10;;
41201;SDS011;26936;50.524;8.684;2023-05-10T09:30:25;1.85;;;0.95;;
41201;SDS011;26936;50.524;8.684;2023-05-10T09:32:52;1.60;;;1.20;;
41201;SDS011;26936;50.524;8.684;2023-05-10T09:35:19;2.03;;;1.48;;
41201;SDS011;26936;50.524;8.684;2023-05-10T09:37:46;2.00;;;1.50;;
41201;SDS011;26936;50.524;8.684;2023-05-10T09:40:24;2.90;;;2.03;;
41201;SDS011;26936;50.524;8.684;2023-05-10T09:42:57;4.05;;;1.80;;
41201;SDS011;26936;50.524;8.684;2023-05-10T09:45:23;3.47;;;1.55;;
41201;SDS011;26936;50.524;8.684;2023-05-10T09:47:50;1.83;;;1.05;;
41201;SDS011;26936;50.524;8.684;2023-05-10T09:50:16;2.15;;;1.15;;
41201;SDS011;26936;50.524;8.684;2023-05-10T09:55:14;1.98;;;1.20;;
41201;SDS011;26936;50.524;8.684;2023-05-10T09:57:41;1.42;;;1.10;;
41201;SDS011;26936;50.524;8.684;2023-05-10T10:00:06;1.77;;;1.00;;
41201;SDS011;26936;50.524;8.684;2023-05-10T10:02:32;1.58;;;0.77;;
41201;SDS011;26936;50.524;8.684;2023-05-10T10:04:58;2.38;;;1.02;;
41201;SDS011;26936;50.524;8.684;2023-05-10T10:07:26;1.23;;;1.00;;
41201;SDS011;26936;50.524;8.684;2023-05-10T10:09:52;2.15;;;1.00;;
41201;SDS011;26936;50.524;8.684;2023-05-10T10:12:18;1.52;;;1.00;;
41201;SDS011;26936;50.524;8.684;2023-05-10T10:14:45;2.15;;;1.30;;
41201;SDS011;26936;50.524;8.684;2023-05-10T10:17:12;1.55;;;1.20;;
41201;SDS011;26936;50.524;8.684;2023-05-10T10:19:38;2.05;;;1.30;;
41201;SDS011;26936;50.524;8.684;2023-05-10T10:22:04;1.50;;;1.10;;
41201;SDS011;26936;50.524;8.684;2023-05-10T10:24:30;2.88;;;1.30;;
41201;SDS011;26936;50.524;8.684;2023-05-10T10:26:57;1.73;;;1.30;;
41201;SDS011;26936;50.524;8.684;2023-05-10T10:29:40;2.97;;;1.77;;
41201;SDS011;26936;50.524;8.684;2023-05-10T10:32:26;2.90;;;1.90;;
41201;SDS011;26936;50.524;8.684;2023-05-10T10:35:00;2.90;;;1.60;;
41201;SDS011;26936;50.524;8.684;2023-05-10T10:37:40;2.58;;;1.75;;
41201;SDS011;26936;50.524;8.684;2023-05-10T10:40:30;2.65;;;1.60;;
41201;SDS011;26936;50.524;8.684;2023-05-10T10:42:57;3.10;;;1.50;;
41201;SDS011;26936;50.524;8.684;2023-05-10T10:45:23;2.20;;;1.50;;
41201;SDS011;26936;50.524;8.684;2023-05-10T10:48:32;2.45;;;1.60;;
41201;SDS011;26936;50.524;8.684;2023-05-10T10:50:45;2.08;;;1.35;;
41201;SDS011;26936;50.524;8.684;2023-05-10T10:53:11;3.20;;;1.60;;
41201;SDS011;26936;50.524;8.684;2023-05-10T10:55:44;1.88;;;1.23;;
41201;SDS011;26936;50.524;8.684;2023-05-10T10:58:12;1.60;;;1.20;;
41201;SDS011;26936;50.524;8.684;2023-05-10T11:01:08;2.05;;;1.48;;
41201;SDS011;26936;50.524;8.684;2023-05-10T11:03:41;2.03;;;1.63;;
41201;SDS011;26936;50.524;8.684;2023-05-10T11:06:39;2.58;;;1.77;;
41201;SDS011;26936;50.524;8.684;2023-05-10T11:09:05;1.85;;;1.30;;
41201;SDS011;26936;50.524;8.684;2023-05-10T11:11:32;3.35;;;1.77;;
41201;SDS011;26936;50.524;8.684;2023-05-10T11:14:03;1.30;;;1.20;;
41201;SDS011;26936;50.524;8.684;2023-05-10T11:16:40;2.53;;;1.42;;
41201;SDS011;26936;50.524;8.684;2023-05-10T11:19:10;2.60;;;1.40;;
41201;SDS011;26936;50.524;8.684;2023-05-10T11:21:48;2.38;;;1.40;;
41201;SDS011;26936;50.524;8.684;2023-05-10T11:24:16;1.65;;;1.33;;
41201;SDS011;26936;50.524;8.684;2023-05-10T11:26:43;1.75;;;1.20;;
41201;SDS011;26936;50.524;8.684;2023-05-10T11:29:09;2.85;;;1.40;;
41201;SDS011;26936;50.524;8.684;2023-05-10T11:31:35;3.85;;;1.88;;
41201;SDS011;26936;50.524;8.684;2023-05-10T11:34:06;3.60;;;2.10;;
41201;SDS011;26936;50.524;8.684;2023-05-10T11:36:35;3.75;;;2.38;;
41201;SDS011;26936;50.524;8.684;2023-05-10T11:39:02;2.50;;;1.92;;
41201;SDS011;26936;50.524;8.684;2023-05-10T11:41:29;2.92;;;2.03;;
41201;SDS011;26936;50.524;8.684;2023-05-10T11:43:55;4.65;;;2.05;;
41201;SDS011;26936;50.524;8.684;2023-05-10T11:46:23;3.20;;;1.85;;
41201;SDS011;26936;50.524;8.684;2023-05-10T11:48:52;3.30;;;1.88;;
41201;SDS011;26936;50.524;8.684;2023-05-10T11:51:22;1.88;;;1.27;;
41201;SDS011;26936;50.524;8.684;2023-05-10T11:53:49;2.10;;;1.25;;
41201;SDS011;26936;50.524;8.684;2023-05-10T11:56:16;2.22;;;1.52;;
41201;SDS011;26936;50.524;8.684;2023-05-10T11:58:41;3.25;;;1.48;;
41201;SDS011;26936;50.524;8.684;2023-05-10T12:01:07;2.97;;;1.60;;
41201;SDS011;26936;50.524;8.684;2023-05-10T12:03:34;3.65;;;1.58;;
41201;SDS011;26936;50.524;8.684;2023-05-10T12:05:59;3.35;;;1.90;;
41201;SDS011;26936;50.524;8.684;2023-05-10T12:08:26;3.08;;;1.83;;
41201;SDS011;26936;50.524;8.684;2023-05-10T12:10:53;1.92;;;1.10;;
41201;SDS011;26936;50.524;8.684;2023-05-10T12:13:30;2.78;;;0.80;;
41201;SDS011;26936;50.524;8.684;2023-05-10T12:15:58;1.60;;;1.13;;
41201;SDS011;26936;50.524;8.684;2023-05-10T12:18:24;0.82;;;0.70;;
41201;SDS011;26936;50.524;8.684;2023-05-10T12:20:51;0.98;;;0.70;;
41201;SDS011;26936;50.524;8.684;2023-05-10T12:23:18;2.50;;;1.10;;
41201;SDS011;26936;50.524;8.684;2023-05-10T12:25:45;2.00;;;0.90;;
41201;SDS011;26936;50.524;8.684;2023-05-10T12:28:10;2.45;;;1.10;;
41201;SDS011;26936;50.524;8.684;2023-05-10T12:30:36;2.00;;;0.90;;
41201;SDS011;26936;50.524;8.684;2023-05-10T12:33:02;2.83;;;1.17;;
41201;SDS011;26936;50.524;8.684;2023-05-10T12:35:32;1.30;;;0.80;;
41201;SDS011;26936;50.524;8.684;2023-05-10T12:37:57;1.95;;;0.93;;
41201;SDS011;26936;50.524;8.684;2023-05-10T12:40:23;2.70;;;0.90;;
41201;SDS011;26936;50.524;8.684;2023-05-10T12:42:48;1.50;;;1.05;;
41201;SDS011;26936;50.524;8.684;2023-05-10T12:45:14;1.95;;;1.02;;
41201;SDS011;26936;50.524;8.684;2023-05-10T12:47:39;2.03;;;1.10;;
41201;SDS011;26936;50.524;8.684;2023-05-10T12:50:05;5.35;;;1.00;;
41201;SDS011;26936;50.524;8.684;2023-05-10T12:52:31;1.88;;;1.00;;
41201;SDS011;26936;50.524;8.684;2023-05-10T12:54:57;1.77;;;0.90;;
41201;SDS011;26936;50.524;8.684;2023-05-10T12:57:23;2.70;;;1.10;;
41201;SDS011;26936;50.524;8.684;2023-05-10T12:59:48;1.90;;;1.03;;
41201;SDS011;26936;50.524;8.684;2023-05-10T13:02:14;4.13;;;0.90;;
41201;SDS011;26936;50.524;8.684;2023-05-10T13:04:40;1.38;;;0.70;;
41201;SDS011;26936;50.524;8.684;2023-05-10T13:07:06;2.53;;;1.77;;
41201;SDS011;26936;50.524;8.684;2023-05-10T13:09:32;5.18;;;1.20;;
41201;SDS011;26936;50.524;8.684;2023-05-10T13:11:57;4.40;;;2.47;;
41201;SDS011;26936;50.524;8.684;2023-05-10T13:14:22;2.33;;;1.17;;
41201;SDS011;26936;50.524;8.684;2023-05-10T13:16:48;2.00;;;1.20;;
41201;SDS011;26936;50.524;8.684;2023-05-10T13:19:13;1.77;;;0.50;;
41201;SDS011;26936;50.524;8.684;2023-05-10T13:21:39;1.48;;;0.60;;
41201;SDS011;26936;50.524;8.684;2023-05-10T13:24:06;4.45;;;1.60;;
41201;SDS011;26936;50.524;8.684;2023-05-10T13:26:32;1.20;;;0.80;;
41201;SDS011;26936;50.524;8.684;2023-05-10T13:28:57;0.40;;;0.40;;
41201;SDS011;26936;50.524;8.684;2023-05-10T13:31:22;1.02;;;0.60;;
41201;SDS011;26936;50.524;8.684;2023-05-10T13:33:48;1.23;;;0.50;;
41201;SDS011;26936;50.524;8.684;2023-05-10T13:36:13;2.23;;;0.50;;
41201;SDS011;26936;50.524;8.684;2023-05-10T13:38:38;2.28;;;0.50;;
41201;SDS011;26936;50.524;8.684;2023-05-10T13:41:04;0.93;;;0.40;;
41201;SDS011;26936;50.524;8.684;2023-05-10T13:43:29;3.22;;;2.05;;
41201;SDS011;26936;50.524;8.684;2023-05-10T13:45:54;1.58;;;0.50;;
41201;SDS011;26936;50.524;8.684;2023-05-10T13:48:20;6.53;;;3.28;;
41201;SDS011;26936;50.524;8.684;2023-05-10T13:50:46;1.95;;;0.50;;
41201;SDS011;26936;50.524;8.684;2023-05-10T13:53:11;0.75;;;0.30;;
41201;SDS011;26936;50.524;8.684;2023-05-10T13:55:37;0.28;;;0.20;;
41201;SDS011;26936;50.524;8.684;2023-05-10T13:58:02;0.88;;;0.17;;
41201;SDS011;26936;50.524;8.684;2023-05-10T14:00:28;0.30;;;0.20;;
41201;SDS011;26936;50.524;8.684;2023-05-10T14:02:53;1.13;;;0.20;;
41201;SDS011;26936;50.524;8.684;2023-05-10T14:05:18;0.10;;;0.10;;
41201;SDS011;26936;50.524;8.684;2023-05-10T14:07:44;0.25;;;0.10;;
41201;SDS011;26936;50.524;8.684;2023-05-10T14:10:09;0.10;;;0.10;;
41201;SDS011;26936;50.524;8.684;2023-05-10T14:12:34;0.10;;;0.10;;
41201;SDS011;26936;50.524;8.684;2023-05-10T14:14:59;0.30;;;0.10;;
41201;SDS011;26936;50.524;8.684;2023-05-10T14:17:25;0.20;;;0.20;;
41201;SDS011;26936;50.524;8.684;2023-05-10T14:19:50;0.10;;;0.10;;
41201;SDS011;26936;50.524;8.684;2023-05-10T14:22:15;0.10;;;0.10;;
41201;SDS011;26936;50.524;8.684;2023-05-10T14:24:41;3.57;;;0.40;;
41201;SDS011;26936;50.524;8.684;2023-05-10T14:27:06;0.27;;;0.10;;
41201;SDS011;26936;50.524;8.684;2023-05-10T14:29:31;2.90;;;0.22;;
41201;SDS011;26936;50.524;8.684;2023-05-10T14:31:57;0.75;;;0.30;;
41201;SDS011;26936;50.524;8.684;2023-05-10T14:34:23;2.50;;;0.30;;
41201;SDS011;26936;50.524;8.684;2023-05-10T14:36:48;0.63;;;0.40;;
41201;SDS011;26936;50.524;8.684;2023-05-10T14:39:13;1.13;;;0.20;;
41201;SDS011;26936;50.524;8.684;2023-05-10T14:41:39;0.30;;;0.30;;
41201;SDS011;26936;50.524;8.684;2023-05-10T14:44:06;0.57;;;0.20;;
41201;SDS011;26936;50.524;8.684;2023-05-10T14:46:31;0.20;;;0.20;;
41201;SDS011;26936;50.524;8.684;2023-05-10T14:48:57;1.70;;;0.28;;
41201;SDS011;26936;50.524;8.684;2023-05-10T14:51:22;0.30;;;0.27;;
41201;SDS011;26936;50.524;8.684;2023-05-10T14:53:48;2.75;;;0.60;;
41201;SDS011;26936;50.524;8.684;2023-05-10T14:56:14;0.45;;;0.25;;
41201;SDS011;26936;50.524;8.684;2023-05-10T14:58:39;0.85;;;0.40;;